Time,TemperatureF,DewpointF,PressureIn,WindDirection,WindDirectionDegrees,WindSpeedMPH,WindSpeedGustMPH,Humidity,HourlyPrecipIn,Conditions,Clouds,dailyrainin,SoftwareType,DateUTC
2013-01-02 00:11:00,-16.5,-21.0,30.91,WSW,256,0.0,1.0,79,0.00,,,0.00,weatherlink.com 1.10,2013-01-02 07:11:00,
2013-01-02 00:26:00,-16.1,-21.0,30.91,WSW,252,0.0,1.0,80,0.00,,,0.00,weatherlink.com 1.10,2013-01-02 07:26:00,
2013-01-02 00:41:00,-15.1,-20.0,30.91,WSW,251,0.0,1.0,80,0.00,,,0.00,weatherlink.com 1.10,2013-01-02 07:41:00,
2013-01-02 00:57:00,-14.2,-18.0,30.92,WSW,252,0.0,1.0,81,0.00,,,0.00,weatherlink.com 1.10,2013-01-02 07:57:00,
2013-01-02 01:12:00,-13.1,-17.0,30.93,WSW,251,0.0,1.0,81,0.00,,,0.00,weatherlink.com 1.10,2013-01-02 08:12:00,
2013-01-02 01:27:00,-12.7,-17.0,30.93,WSW,252,0.0,1.0,79,0.00,,,0.00,weatherlink.com 1.10,2013-01-02 08:27:00,
2013-01-02 01:42:00,-13.5,-18.0,30.93,WSW,252,0.0,1.0,79,0.00,,,0.00,weatherlink.com 1.10,2013-01-02 08:42:00,
2013-01-02 01:57:00,-14.4,-19.0,30.94,WSW,252,0.0,1.0,78,0.00,,,0.00,weatherlink.com 1.10,2013-01-02 08:57:00,
2013-01-02 02:12:00,-15.2,-20.0,30.95,WSW,252,0.0,1.0,78,0.00,,,0.00,weatherlink.com 1.10,2013-01-02 09:12:00,
2013-01-02 02:27:00,-16.0,-21.0,30.94,WSW,252,0.0,1.0,78,0.00,,,0.00,weatherlink.com 1.10,2013-01-02 09:27:00,
2013-01-02 02:42:00,-16.6,-22.0,30.95,WSW,252,0.0,1.0,78,0.00,,,0.00,weatherlink.com 1.10,2013-01-02 09:42:00,
2013-01-02 02:57:00,-17.0,-22.0,30.96,WSW,252,0.0,0.0,78,0.00,,,0.00,weatherlink.com 1.10,2013-01-02 09:57:00,
2013-01-02 03:12:00,-17.3,-22.0,30.96,WSW,252,0.0,1.0,78,0.00,,,0.00,weatherlink.com 1.10,2013-01-02 10:12:00,
2013-01-02 03:27:00,-16.9,-22.0,30.95,WSW,255,0.0,1.0,79,0.00,,,0.00,weatherlink.com 1.10,2013-01-02 10:27:00,
2013-01-02 03:42:00,-17.0,-22.0,30.95,WSW,255,0.0,1.0,79,0.00,,,0.00,weatherlink.com 1.10,2013-01-02 10:42:00,
2013-01-02 03:57:00,-17.2,-22.0,30.95,WSW,255,0.0,0.0,78,0.00,,,0.00,weatherlink.com 1.10,2013-01-02 10:57:00,
2013-01-02 04:13:00,-17.6,-22.0,30.94,WSW,255,0.0,1.0,78,0.00,,,0.00,weatherlink.com 1.10,2013-01-02 11:13:00,
2013-01-02 04:28:00,-18.0,-23.0,30.94,WSW,255,0.0,1.0,78,0.00,,,0.00,weatherlink.com 1.10,2013-01-02 11:28:00,
2013-01-02 04:43:00,-18.0,-23.0,30.94,WSW,257,0.0,1.0,79,0.00,,,0.00,weatherlink.com 1.10,2013-01-02 11:43:00,
2013-01-02 04:58:00,-18.3,-23.0,30.93,WSW,257,0.0,1.0,78,0.00,,,0.00,weatherlink.com 1.10,2013-01-02 11:58:00,
2013-01-02 05:13:00,-18.9,-24.0,30.94,WSW,257,0.0,1.0,77,0.00,,,0.00,weatherlink.com 1.10,2013-01-02 12:13:00,
2013-01-02 05:28:00,-19.0,-24.0,30.95,WSW,257,0.0,1.0,77,0.00,,,0.00,weatherlink.com 1.10,2013-01-02 12:28:00,
2013-01-02 05:43:00,-19.4,-24.0,30.95,WSW,257,0.0,1.0,77,0.00,,,0.00,weatherlink.com 1.10,2013-01-02 12:43:00,
2013-01-02 05:58:00,-19.5,-25.0,30.96,WSW,254,1.0,1.0,77,0.00,,,0.00,weatherlink.com 1.10,2013-01-02 12:58:00,
2013-01-02 06:13:00,-19.4,-24.0,30.96,WSW,253,0.0,1.0,78,0.00,,,0.00,weatherlink.com 1.10,2013-01-02 13:13:00,
2013-01-02 06:28:00,-19.6,-24.0,30.97,WSW,257,0.0,1.0,78,0.00,,,0.00,weatherlink.com 1.10,2013-01-02 13:28:00,
2013-01-02 06:43:00,-20.0,-25.0,30.97,West,259,0.0,1.0,76,0.00,,,0.00,weatherlink.com 1.10,2013-01-02 13:43:00,
2013-01-02 06:58:00,-20.1,-25.0,30.98,WSW,250,0.0,1.0,78,0.00,,,0.00,weatherlink.com 1.10,2013-01-02 13:58:00,
2013-01-02 07:13:00,-20.3,-25.0,30.98,West,260,0.0,1.0,77,0.00,,,0.00,weatherlink.com 1.10,2013-01-02 14:13:00,
2013-01-02 07:28:00,-20.6,-26.0,30.98,WSW,258,0.0,1.0,77,0.00,,,0.00,weatherlink.com 1.10,2013-01-02 14:28:00,
2013-01-02 07:44:00,-21.0,-26.0,30.98,WSW,257,0.0,1.0,77,0.00,,,0.00,weatherlink.com 1.10,2013-01-02 14:44:00,
2013-01-02 07:59:00,-20.9,-26.0,30.98,WSW,249,0.0,1.0,77,0.00,,,0.00,weatherlink.com 1.10,2013-01-02 14:59:00,
2013-01-02 08:14:00,-20.3,-25.0,30.99,West,259,0.0,1.0,78,0.00,,,0.00,weatherlink.com 1.10,2013-01-02 15:14:00,
2013-01-02 08:29:00,-19.8,-25.0,31.00,West,259,0.0,1.0,78,0.00,,,0.00,weatherlink.com 1.10,2013-01-02 15:29:00,
2013-01-02 08:44:00,-18.9,-24.0,30.99,West,260,0.0,1.0,79,0.00,,,0.00,weatherlink.com 1.10,2013-01-02 15:44:00,
2013-01-02 08:59:00,-17.2,-21.0,30.99,West,262,0.0,1.0,82,0.00,,,0.00,weatherlink.com 1.10,2013-01-02 15:59:00,
2013-01-02 09:14:00,-14.5,-18.0,30.99,West,262,0.0,0.0,83,0.00,,,0.00,weatherlink.com 1.10,2013-01-02 16:14:00,
2013-01-02 09:29:00,-9.4,-13.0,30.98,West,262,0.0,0.0,85,0.00,,,0.00,weatherlink.com 1.10,2013-01-02 16:29:00,
2013-01-02 09:44:00,-4.4,-8.0,30.98,West,262,0.0,0.0,83,0.00,,,0.00,weatherlink.com 1.10,2013-01-02 16:44:00,
2013-01-02 09:59:00,0.1,-6.0,30.97,WSW,255,0.0,0.0,77,0.00,,,0.00,weatherlink.com 1.10,2013-01-02 16:59:00,
2013-01-02 10:14:00,6.3,-3.0,30.96,South,184,0.0,1.0,66,0.00,,,0.00,weatherlink.com 1.10,2013-01-02 17:14:00,
2013-01-02 10:29:00,7.9,-3.0,30.95,SE,131,0.0,0.0,61,0.00,,,0.00,weatherlink.com 1.10,2013-01-02 17:29:00,
2013-01-02 10:44:00,7.2,-2.0,30.93,East,94,2.0,3.0,66,0.00,,,0.00,weatherlink.com 1.10,2013-01-02 17:44:00,
2013-01-02 11:15:00,14.2,3.0,30.90,East,83,0.0,1.0,60,0.00,,,0.00,weatherlink.com 1.10,2013-01-02 18:15:00,
2013-01-02 11:30:00,13.4,2.0,30.89,East,96,0.0,3.0,61,0.00,,,0.00,weatherlink.com 1.10,2013-01-02 18:30:00,
2013-01-02 11:45:00,14.9,3.0,30.87,East,86,2.0,3.0,60,0.00,,,0.00,weatherlink.com 1.10,2013-01-02 18:45:00,
2013-01-02 12:00:00,17.5,4.0,30.86,East,98,0.0,5.0,56,0.00,,,0.00,weatherlink.com 1.10,2013-01-02 19:00:00,
2013-01-02 12:15:00,17.7,4.0,30.84,ESE,115,0.0,6.0,55,0.00,,,0.00,weatherlink.com 1.10,2013-01-02 19:15:00,
2013-01-02 12:30:00,18.5,3.0,30.82,ESE,111,3.0,5.0,52,0.00,,,0.00,weatherlink.com 1.10,2013-01-02 19:30:00,
2013-01-02 12:45:00,18.2,3.0,30.81,ESE,109,3.0,9.0,51,0.00,,,0.00,weatherlink.com 1.10,2013-01-02 19:45:00,
2013-01-02 13:00:00,18.2,2.0,30.80,ESE,113,6.0,9.0,50,0.00,,,0.00,weatherlink.com 1.10,2013-01-02 20:00:00,
2013-01-02 13:15:00,17.7,2.0,30.80,NNE,26,0.0,8.0,50,0.00,,,0.00,weatherlink.com 1.10,2013-01-02 20:15:00,
2013-01-02 13:30:00,19.0,3.0,30.80,ESE,105,4.0,8.0,49,0.00,,,0.00,weatherlink.com 1.10,2013-01-02 20:30:00,
2013-01-02 13:45:00,18.1,2.0,30.80,NW,312,0.0,3.0,50,0.00,,,0.00,weatherlink.com 1.10,2013-01-02 20:45:00,
2013-01-02 14:00:00,18.5,3.0,30.80,West,278,0.0,6.0,50,0.00,,,0.00,weatherlink.com 1.10,2013-01-02 21:00:00,
2013-01-02 14:31:00,18.9,2.0,30.80,East,80,0.0,7.0,48,0.00,,,0.00,weatherlink.com 1.10,2013-01-02 21:31:00,
2013-01-02 14:46:00,16.7,2.0,30.80,ESE,109,0.0,3.0,52,0.00,,,0.00,weatherlink.com 1.10,2013-01-02 21:46:00,
2013-01-02 15:01:00,15.5,2.0,30.80,SW,226,1.0,3.0,55,0.00,,,0.00,weatherlink.com 1.10,2013-01-02 22:01:00,
2013-01-02 15:16:00,13.6,1.0,30.80,ESE,116,4.0,5.0,58,0.00,,,0.00,weatherlink.com 1.10,2013-01-02 22:16:00,
2013-01-02 15:31:00,13.1,2.0,30.81,ESE,105,2.0,6.0,60,0.00,,,0.00,weatherlink.com 1.10,2013-01-02 22:31:00,
2013-01-02 15:46:00,12.6,1.0,30.81,South,179,0.0,5.0,61,0.00,,,0.00,weatherlink.com 1.10,2013-01-02 22:46:00,
2013-01-02 16:01:00,12.4,1.0,30.82,ESE,110,1.0,5.0,60,0.00,,,0.00,weatherlink.com 1.10,2013-01-02 23:01:00,
2013-01-02 16:16:00,10.9,1.0,30.82,East,96,0.0,4.0,63,0.00,,,0.00,weatherlink.com 1.10,2013-01-02 23:16:00,
2013-01-02 16:31:00,9.6,0.0,30.83,ESE,123,0.0,4.0,65,0.00,,,0.00,weatherlink.com 1.10,2013-01-02 23:31:00,
2013-01-02 16:46:00,7.2,-1.0,30.84,East,96,0.0,2.0,70,0.00,,,0.00,weatherlink.com 1.10,2013-01-02 23:46:00,
2013-01-02 17:01:00,4.3,-4.0,30.85,East,96,0.0,1.0,70,0.00,,,0.00,weatherlink.com 1.10,2013-01-03 00:01:00,
2013-01-02 17:16:00,1.1,-6.0,30.85,East,97,0.0,1.0,73,0.00,,,0.00,weatherlink.com 1.10,2013-01-03 00:16:00,
2013-01-02 17:31:00,-1.8,-8.0,30.86,WSW,248,0.0,1.0,75,0.00,,,0.00,weatherlink.com 1.10,2013-01-03 00:31:00,
2013-01-02 17:47:00,-3.7,-10.0,30.87,West,259,0.0,1.0,76,0.00,,,0.00,weatherlink.com 1.10,2013-01-03 00:47:00,
2013-01-02 18:02:00,-4.4,-9.0,30.88,WSW,252,0.0,1.0,79,0.00,,,0.00,weatherlink.com 1.10,2013-01-03 01:02:00,
2013-01-02 18:17:00,-5.4,-10.0,30.90,West,259,0.0,1.0,79,0.00,,,0.00,weatherlink.com 1.10,2013-01-03 01:17:00,
2013-01-02 18:32:00,-6.7,-12.0,30.90,West,260,0.0,1.0,77,0.00,,,0.00,weatherlink.com 1.10,2013-01-03 01:32:00,
2013-01-02 18:47:00,-7.7,-12.0,30.91,West,278,0.0,1.0,80,0.00,,,0.00,weatherlink.com 1.10,2013-01-03 01:47:00,
2013-01-02 19:02:00,-8.1,-13.0,30.92,SW,228,0.0,1.0,78,0.00,,,0.00,weatherlink.com 1.10,2013-01-03 02:02:00,
2013-01-02 19:17:00,-9.5,-14.0,30.92,West,264,0.0,1.0,79,0.00,,,0.00,weatherlink.com 1.10,2013-01-03 02:17:00,
2013-01-02 19:32:00,-10.2,-15.0,30.92,WSW,257,0.0,1.0,78,0.00,,,0.00,weatherlink.com 1.10,2013-01-03 02:32:00,
2013-01-02 19:47:00,-10.8,-16.0,30.92,West,266,1.0,1.0,79,0.00,,,0.00,weatherlink.com 1.10,2013-01-03 02:47:00,
2013-01-02 20:02:00,-11.5,-16.0,30.93,WSW,255,0.0,1.0,79,0.00,,,0.00,weatherlink.com 1.10,2013-01-03 03:02:00,
2013-01-02 20:17:00,-12.2,-17.0,30.93,West,262,0.0,1.0,80,0.00,,,0.00,weatherlink.com 1.10,2013-01-03 03:17:00,
2013-01-02 20:32:00,-13.1,-18.0,30.93,West,259,0.0,1.0,78,0.00,,,0.00,weatherlink.com 1.10,2013-01-03 03:32:00,
2013-01-02 20:47:00,-13.4,-18.0,30.94,WSW,252,0.0,1.0,79,0.00,,,0.00,weatherlink.com 1.10,2013-01-03 03:47:00,
2013-01-02 21:03:00,-13.4,-18.0,30.94,WSW,254,0.0,1.0,78,0.00,,,0.00,weatherlink.com 1.10,2013-01-03 04:03:00,
2013-01-02 21:18:00,-14.0,-19.0,30.95,WSW,254,0.0,1.0,78,0.00,,,0.00,weatherlink.com 1.10,2013-01-03 04:18:00,
2013-01-02 21:33:00,-14.4,-19.0,30.96,WSW,253,0.0,1.0,79,0.00,,,0.00,weatherlink.com 1.10,2013-01-03 04:33:00,
2013-01-02 21:48:00,-14.6,-19.0,30.97,West,259,0.0,1.0,79,0.00,,,0.00,weatherlink.com 1.10,2013-01-03 04:48:00,
2013-01-02 22:03:00,-14.0,-18.0,30.98,West,264,0.0,1.0,82,0.00,,,0.00,weatherlink.com 1.10,2013-01-03 05:03:00,
2013-01-02 22:18:00,-14.7,-19.0,30.99,WSW,250,0.0,1.0,79,0.00,,,0.00,weatherlink.com 1.10,2013-01-03 05:18:00,
2013-01-02 22:33:00,-15.3,-20.0,31.00,WSW,250,0.0,1.0,78,0.00,,,0.00,weatherlink.com 1.10,2013-01-03 05:33:00,
2013-01-02 22:48:00,-15.2,-20.0,31.00,West,267,0.0,1.0,78,0.00,,,0.00,weatherlink.com 1.10,2013-01-03 05:48:00,
2013-01-02 23:03:00,-16.3,-21.0,31.00,WSW,257,0.0,1.0,77,0.00,,,0.00,weatherlink.com 1.10,2013-01-03 06:03:00,
2013-01-02 23:18:00,-16.8,-22.0,31.01,West,261,0.0,1.0,78,0.00,,,0.00,weatherlink.com 1.10,2013-01-03 06:18:00,
2013-01-02 23:33:00,-16.8,-21.0,31.01,West,267,0.0,1.0,79,0.00,,,0.00,weatherlink.com 1.10,2013-01-03 06:33:00,
2013-01-02 23:48:00,-17.2,-22.0,31.01,West,273,0.0,1.0,77,0.00,,,0.00,weatherlink.com 1.10,2013-01-03 06:48:00,